sensor_id;sensor_type;location;lat;lon;timestamp;P1;durP1;ratioP1;P2;durP2;ratioP2
71141;SDS011;58808;59.366;17.970;2022-10-12T00:01:35;0.80;;;0.80;;
71141;SDS011;58808;59.366;17.970;2022-10-12T00:04:01;0.70;;;0.70;;
71141;SDS011;58808;59.366;17.970;2022-10-12T00:06:27;0.80;;;0.80;;
71141;SDS011;58808;59.366;17.970;2022-10-12T00:08:52;3.42;;;0.85;;
71141;SDS011;58808;59.366;17.970;2022-10-12T00:11:20;2.88;;;1.05;;
71141;SDS011;58808;59.366;17.970;2022-10-12T00:13:50;0.98;;;0.77;;
71141;SDS011;58808;59.366;17.970;2022-10-12T00:16:17;1.20;;;1.10;;
71141;SDS011;58808;59.366;17.970;2022-10-12T00:18:48;0.80;;;0.80;;
71141;SDS011;58808;59.366;17.970;2022-10-12T00:21:15;6.70;;;0.90;;
71141;SDS011;58808;59.366;17.970;2022-10-12T00:23:42;1.00;;;1.00;;
71141;SDS011;58808;59.366;17.970;2022-10-12T00:26:10;1.20;;;1.00;;
71141;SDS011;58808;59.366;17.970;2022-10-12T00:28:38;1.42;;;1.08;;
71141;SDS011;58808;59.366;17.970;2022-10-12T00:31:07;4.47;;;1.17;;
71141;SDS011;58808;59.366;17.970;2022-10-12T00:33:35;3.70;;;0.90;;
71141;SDS011;58808;59.366;17.970;2022-10-12T00:38:55;3.85;;;1.00;;
71141;SDS011;58808;59.366;17.970;2022-10-12T00:41:22;1.88;;;1.30;;
71141;SDS011;58808;59.366;17.970;2022-10-12T00:43:50;1.75;;;1.65;;
71141;SDS011;58808;59.366;17.970;2022-10-12T00:46:17;3.90;;;1.15;;
71141;SDS011;58808;59.366;17.970;2022-10-12T00:48:57;1.10;;;1.10;;
71141;SDS011;58808;59.366;17.970;2022-10-12T00:51:33;2.40;;;1.30;;
71141;SDS011;58808;59.366;17.970;2022-10-12T00:54:00;2.75;;;1.25;;
71141;SDS011;58808;59.366;17.970;2022-10-12T00:56:31;1.20;;;1.20;;
71141;SDS011;58808;59.366;17.970;2022-10-12T00:59:01;1.85;;;1.10;;
71141;SDS011;58808;59.366;17.970;2022-10-12T01:01:34;1.30;;;1.20;;
71141;SDS011;58808;59.366;17.970;2022-10-12T01:04:00;31.98;;;29.80;;
71141;SDS011;58808;59.366;17.970;2022-10-12T01:06:27;1.23;;;1.23;;
71141;SDS011;58808;59.366;17.970;2022-10-12T01:08:54;14.88;;;14.00;;
71141;SDS011;58808;59.366;17.970;2022-10-12T01:11:21;3.70;;;1.30;;
71141;SDS011;58808;59.366;17.970;2022-10-12T01:13:47;1.35;;;1.25;;
71141;SDS011;58808;59.366;17.970;2022-10-12T01:18:52;1.20;;;1.20;;
71141;SDS011;58808;59.366;17.970;2022-10-12T01:21:25;1.83;;;1.30;;
71141;SDS011;58808;59.366;17.970;2022-10-12T01:26:50;1.65;;;1.55;;
71141;SDS011;58808;59.366;17.970;2022-10-12T01:32:30;88.80;;;83.22;;
71141;SDS011;58808;59.366;17.970;2022-10-12T01:40:26;1.92;;;1.83;;
71141;SDS011;58808;59.366;17.970;2022-10-12T01:43:16;1.30;;;1.30;;
71141;SDS011;58808;59.366;17.970;2022-10-12T01:45:42;1.60;;;1.30;;
71141;SDS011;58808;59.366;17.970;2022-10-12T01:48:08;1.50;;;1.40;;
71141;SDS011;58808;59.366;17.970;2022-10-12T01:50:37;7.20;;;1.65;;
71141;SDS011;58808;59.366;17.970;2022-10-12T01:53:28;1.40;;;1.40;;
71141;SDS011;58808;59.366;17.970;2022-10-12T02:04:20;54.88;;;51.58;;
71141;SDS011;58808;59.366;17.970;2022-10-12T02:07:03;3.53;;;1.80;;
71141;SDS011;58808;59.366;17.970;2022-10-12T02:09:33;25.08;;;23.65;;
71141;SDS011;58808;59.366;17.970;2022-10-12T02:12:03;1.85;;;1.75;;
71141;SDS011;58808;59.366;17.970;2022-10-12T02:14:41;1.88;;;1.65;;
71141;SDS011;58808;59.366;17.970;2022-10-12T02:17:15;4.90;;;4.53;;
71141;SDS011;58808;59.366;17.970;2022-10-12T02:19:43;1.27;;;1.27;;
71141;SDS011;58808;59.366;17.970;2022-10-12T02:22:17;6.20;;;5.90;;
71141;SDS011;58808;59.366;17.970;2022-10-12T02:24:45;1.77;;;1.67;;
71141;SDS011;58808;59.366;17.970;2022-10-12T02:27:13;3.83;;;3.60;;
71141;SDS011;58808;59.366;17.970;2022-10-12T02:29:42;1.77;;;1.52;;
71141;SDS011;58808;59.366;17.970;2022-10-12T02:32:27;2.10;;;2.00;;
71141;SDS011;58808;59.366;17.970;2022-10-12T02:35:02;1.90;;;1.80;;
71141;SDS011;58808;59.366;17.970;2022-10-12T02:37:38;1.60;;;1.50;;
71141;SDS011;58808;59.366;17.970;2022-10-12T02:40:11;1.70;;;1.60;;
71141;SDS011;58808;59.366;17.970;2022-10-12T02:42:46;1.83;;;1.70;;
71141;SDS011;58808;59.366;17.970;2022-10-12T02:45:21;9.55;;;9.00;;
71141;SDS011;58808;59.366;17.970;2022-10-12T02:47:48;2.00;;;1.90;;
71141;SDS011;58808;59.366;17.970;2022-10-12T02:50:16;2.08;;;1.70;;
71141;SDS011;58808;59.366;17.970;2022-10-12T02:52:45;1.77;;;1.67;;
71141;SDS011;58808;59.366;17.970;2022-10-12T02:55:13;2.15;;;1.60;;
71141;SDS011;58808;59.366;17.970;2022-10-12T02:57:39;1.48;;;1.38;;
71141;SDS011;58808;59.366;17.970;2022-10-12T03:00:05;1.77;;;1.10;;
71141;SDS011;58808;59.366;17.970;2022-10-12T03:02:34;1.60;;;1.50;;
71141;SDS011;58808;59.366;17.970;2022-10-12T03:05:00;1.20;;;1.20;;
71141;SDS011;58808;59.366;17.970;2022-10-12T03:07:26;2.05;;;1.58;;
71141;SDS011;58808;59.366;17.970;2022-10-12T03:09:51;3.22;;;2.20;;
71141;SDS011;58808;59.366;17.970;2022-10-12T03:12:17;2.00;;;1.90;;
71141;SDS011;58808;59.366;17.970;2022-10-12T03:14:43;2.72;;;2.53;;
71141;SDS011;58808;59.366;17.970;2022-10-12T03:17:08;2.42;;;2.33;;
71141;SDS011;58808;59.366;17.970;2022-10-12T03:19:34;23.15;;;21.77;;
71141;SDS011;58808;59.366;17.970;2022-10-12T03:22:00;97.45;;;91.43;;
71141;SDS011;58808;59.366;17.970;2022-10-12T03:24:25;3.45;;;3.17;;
71141;SDS011;58808;59.366;17.970;2022-10-12T03:26:51;7.25;;;2.13;;
71141;SDS011;58808;59.366;17.970;2022-10-12T03:29:17;12.50;;;11.80;;
71141;SDS011;58808;59.366;17.970;2022-10-12T03:31:42;3.78;;;2.15;;
71141;SDS011;58808;59.366;17.970;2022-10-12T03:34:08;4.65;;;4.35;;
71141;SDS011;58808;59.366;17.970;2022-10-12T03:36:33;16.55;;;15.60;;
71141;SDS011;58808;59.366;17.970;2022-10-12T03:38:59;14.25;;;13.40;;
71141;SDS011;58808;59.366;17.970;2022-10-12T03:41:25;23.05;;;21.73;;
71141;SDS011;58808;59.366;17.970;2022-10-12T03:43:51;3.90;;;2.60;;
71141;SDS011;58808;59.366;17.970;2022-10-12T03:46:16;31.42;;;29.48;;
71141;SDS011;58808;59.366;17.970;2022-10-12T03:48:42;4.55;;;4.25;;
71141;SDS011;58808;59.366;17.970;2022-10-12T03:51:08;2.20;;;2.10;;
71141;SDS011;58808;59.366;17.970;2022-10-12T03:53:36;14.30;;;13.40;;
71141;SDS011;58808;59.366;17.970;2022-10-12T03:56:02;11.23;;;10.48;;
71141;SDS011;58808;59.366;17.970;2022-10-12T03:58:27;1.42;;;1.40;;
71141;SDS011;58808;59.366;17.970;2022-10-12T04:00:53;7.50;;;7.07;;
71141;SDS011;58808;59.366;17.970;2022-10-12T04:03:20;2.63;;;2.50;;
71141;SDS011;58808;59.366;17.970;2022-10-12T04:05:53;11.80;;;11.07;;
71141;SDS011;58808;59.366;17.970;2022-10-12T04:08:19;3.08;;;1.60;;
71141;SDS011;58808;59.366;17.970;2022-10-12T04:10:45;2.45;;;2.35;;
71141;SDS011;58808;59.366;17.970;2022-10-12T04:13:11;6.82;;;6.40;;
71141;SDS011;58808;59.366;17.970;2022-10-12T04:15:37;3.25;;;1.45;;
71141;SDS011;58808;59.366;17.970;2022-10-12T04:18:03;2.83;;;2.45;;
71141;SDS011;58808;59.366;17.970;2022-10-12T04:20:29;3.17;;;2.97;;
71141;SDS011;58808;59.366;17.970;2022-10-12T04:22:54;2.70;;;2.45;;
71141;SDS011;58808;59.366;17.970;2022-10-12T04:25:20;7.00;;;6.55;;
71141;SDS011;58808;59.366;17.970;2022-10-12T04:27:46;18.35;;;17.20;;
71141;SDS011;58808;59.366;17.970;2022-10-12T04:30:12;2.20;;;2.10;;
71141;SDS011;58808;59.366;17.970;2022-10-12T04:32:37;2.67;;;2.38;;
71141;SDS011;58808;59.366;17.970;2022-10-12T04:35:03;1.55;;;1.33;;
71141;SDS011;58808;59.366;17.970;2022-10-12T04:37:29;3.50;;;3.20;;
71141;SDS011;58808;59.366;17.970;2022-10-12T04:39:54;5.57;;;1.95;;
71141;SDS011;58808;59.366;17.970;2022-10-12T04:42:20;4.20;;;2.33;;
71141;SDS011;58808;59.366;17.970;2022-10-12T04:44:46;3.85;;;3.50;;
71141;SDS011;58808;59.366;17.970;2022-10-12T04:47:11;13.10;;;12.38;;
71141;SDS011;58808;59.366;17.970;2022-10-12T04:49:37;8.52;;;7.90;;
71141;SDS011;58808;59.366;17.970;2022-10-12T04:52:03;4.82;;;3.03;;
71141;SDS011;58808;59.366;17.970;2022-10-12T04:54:28;78.90;;;74.03;;
71141;SDS011;58808;59.366;17.970;2022-10-12T04:56:56;27.50;;;25.77;;
71141;SDS011;58808;59.366;17.970;2022-10-12T04:59:22;39.75;;;37.30;;
71141;SDS011;58808;59.366;17.970;2022-10-12T05:01:48;75.50;;;70.95;;
71141;SDS011;58808;59.366;17.970;2022-10-12T05:04:14;99.38;;;93.20;;
71141;SDS011;58808;59.366;17.970;2022-10-12T05:06:39;45.30;;;42.35;;
71141;SDS011;58808;59.366;17.970;2022-10-12T05:09:05;88.68;;;83.32;;
71141;SDS011;58808;59.366;17.970;2022-10-12T05:11:31;92.45;;;86.57;;
71141;SDS011;58808;59.366;17.970;2022-10-12T05:13:56;50.60;;;47.25;;
71141;SDS011;58808;59.366;17.970;2022-10-12T05:16:22;23.05;;;21.63;;
71141;SDS011;58808;59.366;17.970;2022-10-12T05:18:48;10.70;;;10.02;;
71141;SDS011;58808;59.366;17.970;2022-10-12T05:21:14;8.18;;;7.60;;
71141;SDS011;58808;59.366;17.970;2022-10-12T05:23:39;89.95;;;84.30;;
71141;SDS011;58808;59.366;17.970;2022-10-12T05:26:05;69.38;;;64.95;;
71141;SDS011;58808;59.366;17.970;2022-10-12T05:28:31;7.05;;;3.50;;
71141;SDS011;58808;59.366;17.970;2022-10-12T05:30:57;9.65;;;8.73;;
71141;SDS011;58808;59.366;17.970;2022-10-12T05:33:22;6.28;;;4.25;;
71141;SDS011;58808;59.366;17.970;2022-10-12T05:35:48;6.85;;;3.33;;
71141;SDS011;58808;59.366;17.970;2022-10-12T05:38:14;4.93;;;2.97;;
71141;SDS011;58808;59.366;17.970;2022-10-12T05:40:39;6.13;;;4.22;;
71141;SDS011;58808;59.366;17.970;2022-10-12T05:43:05;7.68;;;6.25;;
71141;SDS011;58808;59.366;17.970;2022-10-12T05:45:31;16.77;;;15.52;;
71141;SDS011;58808;59.366;17.970;2022-10-12T05:47:57;8.65;;;6.88;;
71141;SDS011;58808;59.366;17.970;2022-10-12T05:50:22;16.10;;;15.05;;
71141;SDS011;58808;59.366;17.970;2022-10-12T05:52:48;83.05;;;77.80;;
71141;SDS011;58808;59.366;17.970;2022-10-12T05:55:13;55.42;;;51.75;;
71141;SDS011;58808;59.366;17.970;2022-10-12T05:57:39;108.63;;;101.72;;
71141;SDS011;58808;59.366;17.970;2022-10-12T06:00:06;35.10;;;32.47;;
71141;SDS011;58808;59.366;17.970;2022-10-12T06:02:32;105.82;;;98.78;;
71141;SDS011;58808;59.366;17.970;2022-10-12T06:04:58;178.43;;;167.20;;
71141;SDS011;58808;59.366;17.970;2022-10-12T06:07:24;106.30;;;99.25;;
71141;SDS011;58808;59.366;17.970;2022-10-12T06:09:49;50.15;;;46.85;;
71141;SDS011;58808;59.366;17.970;2022-10-12T06:12:15;58.92;;;55.40;;
71141;SDS011;58808;59.366;17.970;2022-10-12T06:14:41;117.45;;;110.18;;
71141;SDS011;58808;59.366;17.970;2022-10-12T06:17:07;40.90;;;38.10;;
71141;SDS011;58808;59.366;17.970;2022-10-12T06:19:33;68.93;;;64.80;;
71141;SDS011;58808;59.366;17.970;2022-10-12T06:21:59;17.10;;;15.98;;
71141;SDS011;58808;59.366;17.970;2022-10-12T06:24:25;62.92;;;59.03;;
71141;SDS011;58808;59.366;17.970;2022-10-12T06:26:51;27.83;;;25.63;;
71141;SDS011;58808;59.366;17.970;2022-10-12T06:29:17;36.80;;;34.35;;
71141;SDS011;58808;59.366;17.970;2022-10-12T06:31:43;36.20;;;33.08;;
71141;SDS011;58808;59.366;17.970;2022-10-12T06:34:09;28.90;;;26.80;;
71141;SDS011;58808;59.366;17.970;2022-10-12T06:36:34;31.02;;;28.98;;
71141;SDS011;58808;59.366;17.970;2022-10-12T06:39:00;32.83;;;30.40;;
71141;SDS011;58808;59.366;17.970;2022-10-12T06:41:26;83.65;;;77.90;;
71141;SDS011;58808;59.366;17.970;2022-10-12T06:43:52;66.53;;;62.05;;
71141;SDS011;58808;59.366;17.970;2022-10-12T06:46:17;11.57;;;8.10;;
71141;SDS011;58808;59.366;17.970;2022-10-12T06:48:43;6.72;;;6.13;;
71141;SDS011;58808;59.366;17.970;2022-10-12T06:51:09;47.28;;;44.28;;
71141;SDS011;58808;59.366;17.970;2022-10-12T06:53:34;17.27;;;15.93;;
71141;SDS011;58808;59.366;17.970;2022-10-12T06:56:04;44.90;;;41.85;;
71141;SDS011;58808;59.366;17.970;2022-10-12T06:58:31;6.75;;;4.63;;
71141;SDS011;58808;59.366;17.970;2022-10-12T07:00:57;6.93;;;6.25;;
71141;SDS011;58808;59.366;17.970;2022-10-12T07:03:25;61.70;;;57.35;;
71141;SDS011;58808;59.366;17.970;2022-10-12T07:05:50;31.98;;;30.02;;
71141;SDS011;58808;59.366;17.970;2022-10-12T07:08:16;51.33;;;47.97;;
71141;SDS011;58808;59.366;17.970;2022-10-12T07:10:42;35.80;;;33.47;;
71141;SDS011;58808;59.366;17.970;2022-10-12T07:13:08;14.45;;;12.57;;
71141;SDS011;58808;59.366;17.970;2022-10-12T07:15:33;13.80;;;10.35;;
71141;SDS011;58808;59.366;17.970;2022-10-12T07:17:59;33.47;;;20.77;;
71141;SDS011;58808;59.366;17.970;2022-10-12T07:20:25;64.25;;;43.70;;
71141;SDS011;58808;59.366;17.970;2022-10-12T07:22:51;9.23;;;6.97;;
71141;SDS011;58808;59.366;17.970;2022-10-12T07:25:17;11.68;;;10.38;;
71141;SDS011;58808;59.366;17.970;2022-10-12T07:27:45;7.03;;;6.53;;
71141;SDS011;58808;59.366;17.970;2022-10-12T07:30:12;26.65;;;24.55;;
71141;SDS011;58808;59.366;17.970;2022-10-12T07:32:37;15.32;;;13.93;;
71141;SDS011;58808;59.366;17.970;2022-10-12T07:35:03;23.38;;;21.20;;
71141;SDS011;58808;59.366;17.970;2022-10-12T07:37:29;35.80;;;33.40;;
71141;SDS011;58808;59.366;17.970;2022-10-12T07:39:55;69.88;;;65.20;;
71141;SDS011;58808;59.366;17.970;2022-10-12T07:42:21;54.33;;;50.97;;
71141;SDS011;58808;59.366;17.970;2022-10-12T07:44:47;76.13;;;71.35;;
71141;SDS011;58808;59.366;17.970;2022-10-12T07:47:13;82.80;;;77.30;;
71141;SDS011;58808;59.366;17.970;2022-10-12T07:49:41;30.55;;;28.58;;
71141;SDS011;58808;59.366;17.970;2022-10-12T07:52:07;15.10;;;14.15;;
71141;SDS011;58808;59.366;17.970;2022-10-12T07:54:32;15.65;;;14.32;;
71141;SDS011;58808;59.366;17.970;2022-10-12T07:56:58;7.93;;;7.07;;
71141;SDS011;58808;59.366;17.970;2022-10-12T07:59:24;29.20;;;27.50;;
71141;SDS011;58808;59.366;17.970;2022-10-12T08:01:49;10.45;;;9.65;;
71141;SDS011;58808;59.366;17.970;2022-10-12T08:04:15;8.68;;;8.07;;
71141;SDS011;58808;59.366;17.970;2022-10-12T08:06:41;3.65;;;3.15;;
71141;SDS011;58808;59.366;17.970;2022-10-12T08:09:10;9.18;;;8.50;;
71141;SDS011;58808;59.366;17.970;2022-10-12T08:11:37;6.45;;;3.50;;
71141;SDS011;58808;59.366;17.970;2022-10-12T08:14:04;6.10;;;4.45;;
71141;SDS011;58808;59.366;17.970;2022-10-12T08:16:30;5.22;;;1.90;;
71141;SDS011;58808;59.366;17.970;2022-10-12T08:18:55;1.63;;;1.30;;
71141;SDS011;58808;59.366;17.970;2022-10-12T08:21:21;2.08;;;1.73;;
71141;SDS011;58808;59.366;17.970;2022-10-12T08:23:46;8.10;;;1.65;;
71141;SDS011;58808;59.366;17.970;2022-10-12T08:26:13;4.40;;;1.85;;
71141;SDS011;58808;59.366;17.970;2022-10-12T08:28:39;3.15;;;1.50;;
71141;SDS011;58808;59.366;17.970;2022-10-12T08:31:06;1.55;;;1.13;;
71141;SDS011;58808;59.366;17.970;2022-10-12T08:33:36;2.63;;;2.42;;
71141;SDS011;58808;59.366;17.970;2022-10-12T08:36:03;1.45;;;1.08;;
71141;SDS011;58808;59.366;17.970;2022-10-12T08:38:30;6.55;;;1.33;;
71141;SDS011;58808;59.366;17.970;2022-10-12T08:41:41;3.78;;;2.53;;
71141;SDS011;58808;59.366;17.970;2022-10-12T08:46:47;2.00;;;1.80;;
71141;SDS011;58808;59.366;17.970;2022-10-12T08:49:15;1.65;;;1.27;;
71141;SDS011;58808;59.366;17.970;2022-10-12T08:51:57;2.33;;;1.63;;
71141;SDS011;58808;59.366;17.970;2022-10-12T08:54:28;6.35;;;5.75;;
71141;SDS011;58808;59.366;17.970;2022-10-12T08:57:02;7.68;;;5.40;;
71141;SDS011;58808;59.366;17.970;2022-10-12T08:59:29;3.53;;;1.50;;
71141;SDS011;58808;59.366;17.970;2022-10-12T09:05:08;2.88;;;2.55;;
71141;SDS011;58808;59.366;17.970;2022-10-12T09:07:47;3.85;;;3.63;;
71141;SDS011;58808;59.366;17.970;2022-10-12T09:10:37;2.33;;;1.17;;
71141;SDS011;58808;59.366;17.970;2022-10-12T09:18:35;19.90;;;18.58;;
71141;SDS011;58808;59.366;17.970;2022-10-12T09:21:04;1.75;;;1.55;;
71141;SDS011;58808;59.366;17.970;2022-10-12T09:23:39;2.20;;;2.00;;
71141;SDS011;58808;59.366;17.970;2022-10-12T09:28:47;3.95;;;1.73;;
71141;SDS011;58808;59.366;17.970;2022-10-12T09:34:24;1.65;;;0.95;;
71141;SDS011;58808;59.366;17.970;2022-10-12T09:36:49;0.90;;;0.70;;
71141;SDS011;58808;59.366;17.970;2022-10-12T09:41:48;1.10;;;1.05;;
71141;SDS011;58808;59.366;17.970;2022-10-12T09:44:15;1.38;;;1.27;;
71141;SDS011;58808;59.366;17.970;2022-10-12T09:47:05;21.92;;;14.18;;
71141;SDS011;58808;59.366;17.970;2022-10-12T09:49:51;1.35;;;1.00;;
71141;SDS011;58808;59.366;17.970;2022-10-12T09:52:22;1.90;;;1.10;;
71141;SDS011;58808;59.366;17.970;2022-10-12T09:54:58;1.63;;;0.90;;
71141;SDS011;58808;59.366;17.970;2022-10-12T09:57:32;1.20;;;1.00;;
71141;SDS011;58808;59.366;17.970;2022-10-12T10:00:02;3.53;;;1.40;;
71141;SDS011;58808;59.366;17.970;2022-10-12T10:02:48;1.83;;;1.73;;
71141;SDS011;58808;59.366;17.970;2022-10-12T10:05:30;1.80;;;1.58;;
71141;SDS011;58808;59.366;17.970;2022-10-12T10:11:12;2.83;;;2.38;;
71141;SDS011;58808;59.366;17.970;2022-10-12T10:13:37;2.28;;;1.73;;
71141;SDS011;58808;59.366;17.970;2022-10-12T10:16:08;5.97;;;2.10;;
71141;SDS011;58808;59.366;17.970;2022-10-12T10:18:46;2.30;;;1.50;;
71141;SDS011;58808;59.366;17.970;2022-10-12T10:21:15;1.48;;;1.35;;
71141;SDS011;58808;59.366;17.970;2022-10-12T10:23:56;10.65;;;1.40;;
71141;SDS011;58808;59.366;17.970;2022-10-12T10:26:25;7.32;;;2.08;;
71141;SDS011;58808;59.366;17.970;2022-10-12T10:28:56;2.47;;;2.22;;
71141;SDS011;58808;59.366;17.970;2022-10-12T10:31:39;2.20;;;1.65;;
71141;SDS011;58808;59.366;17.970;2022-10-12T10:36:43;5.38;;;1.40;;
71141;SDS011;58808;59.366;17.970;2022-10-12T10:39:24;1.45;;;1.35;;
71141;SDS011;58808;59.366;17.970;2022-10-12T10:41:51;2.30;;;1.08;;
71141;SDS011;58808;59.366;17.970;2022-10-12T10:44:29;1.75;;;1.13;;
71141;SDS011;58808;59.366;17.970;2022-10-12T10:47:01;5.15;;;0.77;;
71141;SDS011;58808;59.366;17.970;2022-10-12T10:49:38;1.10;;;1.10;;
71141;SDS011;58808;59.366;17.970;2022-10-12T10:52:05;1.33;;;0.80;;
71141;SDS011;58808;59.366;17.970;2022-10-12T10:54:33;2.35;;;1.10;;
71141;SDS011;58808;59.366;17.970;2022-10-12T10:59:59;2.28;;;0.70;;
71141;SDS011;58808;59.366;17.970;2022-10-12T11:02:39;0.85;;;0.77;;
71141;SDS011;58808;59.366;17.970;2022-10-12T11:07:50;1.45;;;0.80;;
71141;SDS011;58808;59.366;17.970;2022-10-12T11:12:58;1.05;;;0.70;;
71141;SDS011;58808;59.366;17.970;2022-10-12T11:18:32;0.68;;;0.68;;
71141;SDS011;58808;59.366;17.970;2022-10-12T11:23:50;1.08;;;0.70;;
71141;SDS011;58808;59.366;17.970;2022-10-12T11:29:03;1.58;;;0.60;;
71141;SDS011;58808;59.366;17.970;2022-10-12T11:31:31;0.57;;;0.47;;
71141;SDS011;58808;59.366;17.970;2022-10-12T11:34:04;1.80;;;0.70;;
71141;SDS011;58808;59.366;17.970;2022-10-12T11:36:33;0.50;;;0.50;;
71141;SDS011;58808;59.366;17.970;2022-10-12T11:39:07;7.30;;;0.57;;
71141;SDS011;58808;59.366;17.970;2022-10-12T11:41:41;1.08;;;0.40;;
71141;SDS011;58808;59.366;17.970;2022-10-12T11:46:36;2.08;;;1.48;;
71141;SDS011;58808;59.366;17.970;2022-10-12T11:49:13;1.92;;;0.65;;
71141;SDS011;58808;59.366;17.970;2022-10-12T11:52:04;1.15;;;0.52;;
71141;SDS011;58808;59.366;17.970;2022-10-12T11:54:56;0.50;;;0.50;;
71141;SDS011;58808;59.366;17.970;2022-10-12T11:57:27;4.07;;;0.47;;
71141;SDS011;58808;59.366;17.970;2022-10-12T11:59:58;1.17;;;0.47;;
71141;SDS011;58808;59.366;17.970;2022-10-12T12:03:16;0.52;;;0.40;;
71141;SDS011;58808;59.366;17.970;2022-10-12T12:05:32;0.75;;;0.60;;
71141;SDS011;58808;59.366;17.970;2022-10-12T12:07:58;0.60;;;0.60;;
71141;SDS011;58808;59.366;17.970;2022-10-12T12:15:35;1.67;;;0.47;;
71141;SDS011;58808;59.366;17.970;2022-10-12T12:18:09;0.90;;;0.52;;
71141;SDS011;58808;59.366;17.970;2022-10-12T12:23:19;0.60;;;0.60;;
71141;SDS011;58808;59.366;17.970;2022-10-12T12:25:45;1.35;;;0.50;;
71141;SDS011;58808;59.366;17.970;2022-10-12T12:28:21;1.40;;;0.60;;
71141;SDS011;58808;59.366;17.970;2022-10-12T12:31:23;0.50;;;0.50;;
71141;SDS011;58808;59.366;17.970;2022-10-12T12:36:31;5.85;;;2.15;;
71141;SDS011;58808;59.366;17.970;2022-10-12T12:38:59;2.50;;;0.55;;
71141;SDS011;58808;59.366;17.970;2022-10-12T12:52:30;2.55;;;0.50;;
71141;SDS011;58808;59.366;17.970;2022-10-12T13:03:54;2.08;;;0.70;;
71141;SDS011;58808;59.366;17.970;2022-10-12T13:09:21;0.80;;;0.63;;
71141;SDS011;58808;59.366;17.970;2022-10-12T13:14:47;4.43;;;0.55;;
71141;SDS011;58808;59.366;17.970;2022-10-12T13:20:25;1.23;;;0.60;;
71141;SDS011;58808;59.366;17.970;2022-10-12T13:22:54;0.50;;;0.50;;
71141;SDS011;58808;59.366;17.970;2022-10-12T13:25:26;0.98;;;0.60;;
71141;SDS011;58808;59.366;17.970;2022-10-12T13:28:11;0.82;;;0.80;;
71141;SDS011;58808;59.366;17.970;2022-10-12T13:30:45;2.20;;;0.80;;
71141;SDS011;58808;59.366;17.970;2022-10-12T13:36:17;1.20;;;0.80;;
71141;SDS011;58808;59.366;17.970;2022-10-12T13:38:52;4.60;;;0.88;;
71141;SDS011;58808;59.366;17.970;2022-10-12T13:41:24;3.13;;;0.60;;
71141;SDS011;58808;59.366;17.970;2022-10-12T13:44:00;1.50;;;0.68;;
71141;SDS011;58808;59.366;17.970;2022-10-12T13:49:18;3.05;;;1.90;;
71141;SDS011;58808;59.366;17.970;2022-10-12T13:54:16;0.93;;;0.60;;
71141;SDS011;58808;59.366;17.970;2022-10-12T13:56:45;0.82;;;0.60;;
71141;SDS011;58808;59.366;17.970;2022-10-12T13:59:18;1.60;;;0.70;;
71141;SDS011;58808;59.366;17.970;2022-10-12T14:01:50;1.33;;;0.70;;
71141;SDS011;58808;59.366;17.970;2022-10-12T14:04:17;0.50;;;0.50;;
71141;SDS011;58808;59.366;17.970;2022-10-12T14:09:44;0.60;;;0.60;;
71141;SDS011;58808;59.366;17.970;2022-10-12T14:12:12;1.25;;;0.60;;
71141;SDS011;58808;59.366;17.970;2022-10-12T14:14:41;0.63;;;0.60;;
71141;SDS011;58808;59.366;17.970;2022-10-12T14:17:15;0.47;;;0.43;;
71141;SDS011;58808;59.366;17.970;2022-10-12T14:19:44;5.80;;;0.50;;
71141;SDS011;58808;59.366;17.970;2022-10-12T14:22:17;0.75;;;0.60;;
71141;SDS011;58808;59.366;17.970;2022-10-12T14:24:45;3.40;;;0.93;;
71141;SDS011;58808;59.366;17.970;2022-10-12T14:27:23;1.33;;;0.70;;
71141;SDS011;58808;59.366;17.970;2022-10-12T14:29:54;1.02;;;0.80;;
71141;SDS011;58808;59.366;17.970;2022-10-12T14:37:43;7.63;;;2.10;;
71141;SDS011;58808;59.366;17.970;2022-10-12T14:40:29;2.85;;;0.98;;
71141;SDS011;58808;59.366;17.970;2022-10-12T14:45:33;1.17;;;1.05;;
71141;SDS011;58808;59.366;17.970;2022-10-12T14:48:00;1.35;;;1.00;;
71141;SDS011;58808;59.366;17.970;2022-10-12T14:50:27;0.82;;;0.68;;
71141;SDS011;58808;59.366;17.970;2022-10-12T14:52:55;6.18;;;3.13;;
71141;SDS011;58808;59.366;17.970;2022-10-12T14:55:27;44.08;;;23.65;;
71141;SDS011;58808;59.366;17.970;2022-10-12T14:57:55;1.55;;;0.70;;
71141;SDS011;58808;59.366;17.970;2022-10-12T15:00:22;1.75;;;0.70;;
71141;SDS011;58808;59.366;17.970;2022-10-12T15:02:49;2.28;;;0.70;;
71141;SDS011;58808;59.366;17.970;2022-10-12T15:05:16;1.45;;;0.82;;
71141;SDS011;58808;59.366;17.970;2022-10-12T15:07:45;1.27;;;0.70;;
71141;SDS011;58808;59.366;17.970;2022-10-12T15:10:12;3.65;;;0.70;;
71141;SDS011;58808;59.366;17.970;2022-10-12T15:12:38;1.70;;;0.70;;
71141;SDS011;58808;59.366;17.970;2022-10-12T15:17:57;0.68;;;0.68;;
71141;SDS011;58808;59.366;17.970;2022-10-12T15:20:24;3.58;;;0.80;;
71141;SDS011;58808;59.366;17.970;2022-10-12T15:22:50;1.20;;;0.90;;
71141;SDS011;58808;59.366;17.970;2022-10-12T15:25:20;2.38;;;0.57;;
71141;SDS011;58808;59.366;17.970;2022-10-12T15:27:49;1.33;;;0.70;;
71141;SDS011;58808;59.366;17.970;2022-10-12T15:30:15;3.85;;;0.70;;
71141;SDS011;58808;59.366;17.970;2022-10-12T15:32:41;1.25;;;0.70;;
71141;SDS011;58808;59.366;17.970;2022-10-12T15:35:15;2.03;;;1.10;;
71141;SDS011;58808;59.366;17.970;2022-10-12T15:37:42;1.48;;;1.00;;
71141;SDS011;58808;59.366;17.970;2022-10-12T15:40:08;2.78;;;1.50;;
71141;SDS011;58808;59.366;17.970;2022-10-12T15:42:35;3.72;;;2.40;;
71141;SDS011;58808;59.366;17.970;2022-10-12T15:45:10;6.85;;;2.63;;
71141;SDS011;58808;59.366;17.970;2022-10-12T15:47:36;5.28;;;2.72;;
71141;SDS011;58808;59.366;17.970;2022-10-12T15:50:02;15.05;;;7.15;;
71141;SDS011;58808;59.366;17.970;2022-10-12T15:52:28;49.83;;;27.42;;
71141;SDS011;58808;59.366;17.970;2022-10-12T15:54:53;4.72;;;2.45;;
71141;SDS011;58808;59.366;17.970;2022-10-12T15:57:19;8.07;;;1.67;;
71141;SDS011;58808;59.366;17.970;2022-10-12T15:59:45;2.28;;;1.27;;
71141;SDS011;58808;59.366;17.970;2022-10-12T16:02:13;4.53;;;1.80;;
71141;SDS011;58808;59.366;17.970;2022-10-12T16:04:38;5.40;;;2.40;;
71141;SDS011;58808;59.366;17.970;2022-10-12T16:07:04;5.47;;;1.65;;
71141;SDS011;58808;59.366;17.970;2022-10-12T16:09:30;5.78;;;1.60;;
71141;SDS011;58808;59.366;17.970;2022-10-12T16:11:55;6.55;;;1.67;;
71141;SDS011;58808;59.366;17.970;2022-10-12T16:14:21;3.78;;;1.60;;
71141;SDS011;58808;59.366;17.970;2022-10-12T16:16:47;6.43;;;2.00;;
71141;SDS011;58808;59.366;17.970;2022-10-12T16:19:13;11.50;;;2.45;;
71141;SDS011;58808;59.366;17.970;2022-10-12T16:21:38;10.25;;;1.90;;
71141;SDS011;58808;59.366;17.970;2022-10-12T16:24:04;4.50;;;2.03;;
71141;SDS011;58808;59.366;17.970;2022-10-12T16:26:29;6.10;;;1.45;;
71141;SDS011;58808;59.366;17.970;2022-10-12T16:28:55;4.35;;;1.80;;
71141;SDS011;58808;59.366;17.970;2022-10-12T16:31:21;5.30;;;1.70;;
71141;SDS011;58808;59.366;17.970;2022-10-12T16:33:47;9.93;;;2.20;;
71141;SDS011;58808;59.366;17.970;2022-10-12T16:36:14;6.03;;;1.80;;
71141;SDS011;58808;59.366;17.970;2022-10-12T16:38:40;3.20;;;2.00;;
71141;SDS011;58808;59.366;17.970;2022-10-12T16:41:08;4.18;;;2.22;;
71141;SDS011;58808;59.366;17.970;2022-10-12T16:43:38;35.88;;;17.38;;
71141;SDS011;58808;59.366;17.970;2022-10-12T16:46:04;9.35;;;4.32;;
71141;SDS011;58808;59.366;17.970;2022-10-12T16:48:30;10.30;;;4.50;;
71141;SDS011;58808;59.366;17.970;2022-10-12T16:50:56;8.10;;;3.92;;